Lairdsville, Pennsylvania
Current Conditions -  °F | °C
As of 3:54 AM on Tuesday 21 Oct 2014 (Local Time) from KIPT Reporting Station
Overcast Overcast  
Wind Chill: 50°   Ceiling: 4100
Heat Index: 50°   Visibility: 10mi
Dew Point: 43°   Wind: 0mph
Humidity: 77%   Direction: NA
Pressure: 29.84"   Gusts: NA
Location:  41.23°N, 76.61°W
Report Text: KIPT 210754Z AUTO 00000KT 10SM BKN041 BKN049 OVC060 10/06 A2984 RMK AO2 SLP105 T01000061
Loading
Personal Weather Stations






























Interactive Weather Map
Tropical Storm Tracking
New forecast layout! Learn more

10-Day Weather Forecast

Advertisements
Track Severe Weather on mobile